createdAt,value
2022-10-05T00:01:39.090Z,53.06
2022-10-05T00:04:22.986Z,53.38
2022-10-05T00:07:02.205Z,53.41
2022-10-05T00:09:33.448Z,53.37
2022-10-05T00:12:12.775Z,53.78
2022-10-05T00:14:41.244Z,53.69
2022-10-05T00:17:17.931Z,53.81
2022-10-05T00:19:47.660Z,53.68
2022-10-05T00:22:22.084Z,54.02
2022-10-05T00:24:56.320Z,53.81
2022-10-05T00:27:28.055Z,53.69
2022-10-05T00:30:00.915Z,53.42
2022-10-05T00:32:29.193Z,53.92
2022-10-05T00:34:58.830Z,54.12
2022-10-05T00:37:27.081Z,54.05
2022-10-05T00:39:55.526Z,54.24
2022-10-05T00:42:59.015Z,54.18
2022-10-05T00:45:33.923Z,54.49
2022-10-05T00:48:17.447Z,54.73
2022-10-05T00:51:06.880Z,54.91
2022-10-05T00:54:08.320Z,54.87
2022-10-05T00:57:01.601Z,55.26
2022-10-05T01:00:00.619Z,55.73
2022-10-05T01:02:37.120Z,55.64
2022-10-05T01:05:24.830Z,55.80
2022-10-05T01:08:04.007Z,55.82
2022-10-05T01:10:45.370Z,55.90
2022-10-05T01:13:40.808Z,56.20
2022-10-05T01:16:35.440Z,56.32
2022-10-05T01:19:27.935Z,56.60
2022-10-05T01:22:06.455Z,56.72
2022-10-05T01:25:11.507Z,57.04
2022-10-05T01:27:41.630Z,57.12
2022-10-05T01:30:20.005Z,57.45
2022-10-05T01:33:06.726Z,57.49
2022-10-05T01:35:35.625Z,57.55
2022-10-05T01:38:37.770Z,58.02
2022-10-05T01:41:34.085Z,58.27
2022-10-05T01:44:25.605Z,58.50
2022-10-05T01:47:15.670Z,58.66
2022-10-05T01:49:59.370Z,59.01
2022-10-05T01:52:53.084Z,59.39
2022-10-05T01:55:31.347Z,59.32
2022-10-05T01:58:07.303Z,59.48
2022-10-05T02:00:59.588Z,60.08
2022-10-05T02:03:40.165Z,60.33
2022-10-05T02:06:22.405Z,60.27
2022-10-05T02:09:02.243Z,60.41
2022-10-05T02:11:30.725Z,60.58
2022-10-05T02:14:09.594Z,60.59
2022-10-05T02:16:44.483Z,60.84
2022-10-05T02:19:28.970Z,61.07
2022-10-05T02:22:13.450Z,61.14
2022-10-05T02:24:49.375Z,61.25
2022-10-05T02:27:25.554Z,61.49
2022-10-05T02:29:57.750Z,61.80
2022-10-05T02:32:33.925Z,61.78
2022-10-05T02:35:14.060Z,61.69
2022-10-05T02:38:10.531Z,61.79
2022-10-05T02:40:38.884Z,61.93
2022-10-05T02:43:28.940Z,62.29
2022-10-05T02:46:06.607Z,62.22
2022-10-05T02:49:00.613Z,62.44
2022-10-05T02:51:31.089Z,62.35
2022-10-05T02:54:14.240Z,62.62
2022-10-05T02:56:59.205Z,62.74
2022-10-05T02:59:39.680Z,62.79
2022-10-05T03:02:16.529Z,62.79
2022-10-05T03:04:50.400Z,63.14
2022-10-05T03:07:33.599Z,63.17
2022-10-05T03:10:27.035Z,63.22
2022-10-05T03:13:14.355Z,63.49
2022-10-05T03:16:01.105Z,63.61
2022-10-05T03:18:55.445Z,63.47
2022-10-05T03:21:42.886Z,63.91
2022-10-05T03:24:20.641Z,63.89
2022-10-05T03:27:16.770Z,64.16
2022-10-05T03:29:58.030Z,64.19
2022-10-05T03:32:43.466Z,64.23
2022-10-05T03:35:25.121Z,64.38
2022-10-05T03:38:18.512Z,64.27
2022-10-05T03:40:52.160Z,64.54
2022-10-05T03:43:48.141Z,64.58
2022-10-05T03:46:38.615Z,64.64
2022-10-05T03:49:18.095Z,64.81
2022-10-05T03:52:08.176Z,64.90
2022-10-05T03:54:51.607Z,64.83
2022-10-05T03:57:27.045Z,65.15
2022-10-05T04:00:07.526Z,64.96
2022-10-05T04:02:41.893Z,65.01
2022-10-05T04:05:13.451Z,65.16
2022-10-05T04:07:47.824Z,65.16
2022-10-05T04:10:41.720Z,65.43
2022-10-05T04:13:28.375Z,65.58
2022-10-05T04:16:24.529Z,65.69
2022-10-05T04:18:55.520Z,66.05
2022-10-05T04:21:37.301Z,65.92
2022-10-05T04:24:13.505Z,66.00
2022-10-05T04:27:08.905Z,66.13
2022-10-05T04:29:54.601Z,66.27
2022-10-05T04:32:34.858Z,66.23
2022-10-05T04:35:30.719Z,66.45
2022-10-05T04:38:36.051Z,66.66
2022-10-05T04:41:23.880Z,66.72
2022-10-05T04:44:22.245Z,66.60
2022-10-05T04:47:05.286Z,66.54
2022-10-05T04:49:51.846Z,66.60
2022-10-05T04:52:56.457Z,66.83
2022-10-05T04:55:43.182Z,66.95
2022-10-05T04:58:38.854Z,66.87
2022-10-05T05:01:30.880Z,67.13
2022-10-05T05:04:12.572Z,67.09
2022-10-05T05:07:12.165Z,66.99
2022-10-05T05:10:01.205Z,66.82
2022-10-05T05:12:29.443Z,67.29
2022-10-05T05:15:18.410Z,67.06
2022-10-05T05:17:56.165Z,67.26
2022-10-05T05:20:38.568Z,67.25
2022-10-05T05:23:40.802Z,67.23
2022-10-05T05:26:47.851Z,67.47
2022-10-05T05:29:44.013Z,67.60
2022-10-05T05:32:30.134Z,67.54
2022-10-05T05:35:20.159Z,67.65
2022-10-05T05:38:19.470Z,67.81
2022-10-05T05:41:09.600Z,67.95
2022-10-05T05:43:56.130Z,67.68
2022-10-05T05:46:45.010Z,67.86
2022-10-05T05:49:23.205Z,68.08
2022-10-05T05:51:57.230Z,68.21
2022-10-05T05:54:35.046Z,68.41
2022-10-05T05:57:20.466Z,68.56
2022-10-05T06:00:09.727Z,68.71
2022-10-05T06:02:55.634Z,68.79
2022-10-05T06:05:48.960Z,68.90
2022-10-05T06:08:37.641Z,69.06
2022-10-05T06:11:31.205Z,68.93
2022-10-05T06:14:10.880Z,68.86
2022-10-05T06:16:47.507Z,68.99
2022-10-05T06:19:22.491Z,68.92
2022-10-05T06:22:23.337Z,69.08
2022-10-05T06:25:13.136Z,68.97
2022-10-05T06:27:59.711Z,69.11
2022-10-05T06:30:44.607Z,69.13
2022-10-05T06:33:15.365Z,69.21
2022-10-05T06:36:01.601Z,69.13
2022-10-05T06:38:58.400Z,69.23
2022-10-05T06:41:41.745Z,69.32
2022-10-05T06:44:32.757Z,69.34
2022-10-05T06:47:45.607Z,69.20
2022-10-05T06:50:22.732Z,69.20
2022-10-05T06:53:03.336Z,69.46
2022-10-05T06:55:51.140Z,69.47
2022-10-05T06:58:33.731Z,69.72
2022-10-05T07:01:11.868Z,69.75
2022-10-05T07:04:00.280Z,69.86
2022-10-05T07:07:32.805Z,69.96
2022-10-05T07:10:29.076Z,69.83
2022-10-05T07:13:05.649Z,69.84
2022-10-05T07:15:51.687Z,70.03
2022-10-05T07:18:37.911Z,69.98
2022-10-05T07:21:36.647Z,70.12
2022-10-05T07:24:23.515Z,70.00
2022-10-05T07:27:14.715Z,70.01
2022-10-05T07:30:01.574Z,70.13
2022-10-05T07:33:06.371Z,70.07
2022-10-05T07:36:01.870Z,70.44
2022-10-05T07:38:57.925Z,70.14
2022-10-05T07:41:41.251Z,70.55
2022-10-05T07:44:21.128Z,70.66
2022-10-05T07:47:05.760Z,70.61
2022-10-05T07:49:49.203Z,70.77
2022-10-05T07:52:48.000Z,70.73
2022-10-05T07:55:33.922Z,70.70
2022-10-05T07:58:32.296Z,70.70
2022-10-05T08:01:24.377Z,70.78
2022-10-05T08:04:13.596Z,70.63
2022-10-05T08:06:50.541Z,70.79
2022-10-05T08:09:37.370Z,70.98
2022-10-05T08:12:20.911Z,71.06
2022-10-05T08:15:21.565Z,71.15
2022-10-05T08:18:01.289Z,71.26
2022-10-05T08:20:47.956Z,71.11
2022-10-05T08:23:27.203Z,71.13
2022-10-05T08:26:28.326Z,71.14
2022-10-05T08:29:12.822Z,71.21
2022-10-05T08:31:50.747Z,71.28
2022-10-05T08:34:27.841Z,71.17
2022-10-05T08:37:33.291Z,71.24
2022-10-05T08:40:31.954Z,71.40
2022-10-05T08:43:19.974Z,71.51
2022-10-05T08:46:01.838Z,71.44
2022-10-05T08:49:03.228Z,71.63
2022-10-05T08:51:50.047Z,71.57
2022-10-05T08:54:25.777Z,71.44
2022-10-05T08:57:05.607Z,71.53
2022-10-05T09:00:03.821Z,71.62
2022-10-05T09:02:59.120Z,71.57
2022-10-05T09:05:27.365Z,71.57
2022-10-05T09:08:22.561Z,71.63
2022-10-05T09:11:11.361Z,71.75
2022-10-05T09:13:54.719Z,71.79
2022-10-05T09:16:51.679Z,71.94
2022-10-05T09:19:38.323Z,71.83
2022-10-05T09:22:51.128Z,72.15
2022-10-05T09:25:19.500Z,72.02
2022-10-05T09:27:58.748Z,72.08
2022-10-05T09:30:33.925Z,72.14
2022-10-05T09:33:26.854Z,72.21
2022-10-05T09:36:37.417Z,72.32
2022-10-05T09:39:40.641Z,72.03
2022-10-05T09:42:25.175Z,72.19
2022-10-05T09:45:02.702Z,72.14
2022-10-05T09:48:00.776Z,72.11
2022-10-05T09:51:05.470Z,72.23
2022-10-05T09:53:53.905Z,72.02
2022-10-05T09:56:51.046Z,72.17
2022-10-05T09:59:49.040Z,72.34
2022-10-05T10:02:46.457Z,72.17
2022-10-05T10:05:35.672Z,72.47
2022-10-05T10:08:30.105Z,72.45
2022-10-05T10:11:18.881Z,72.32
2022-10-05T10:14:11.205Z,72.51
2022-10-05T10:17:08.005Z,72.62
2022-10-05T10:19:38.880Z,72.59
2022-10-05T10:22:31.771Z,72.84
2022-10-05T10:25:35.685Z,72.82
2022-10-05T10:28:34.498Z,72.63
2022-10-05T10:31:27.986Z,72.62
2022-10-05T10:34:29.875Z,72.76
2022-10-05T10:37:14.406Z,72.63
2022-10-05T10:40:07.588Z,72.79
2022-10-05T10:42:47.296Z,72.48
2022-10-05T10:45:38.880Z,72.80
2022-10-05T10:48:33.126Z,72.65
2022-10-05T10:51:07.515Z,72.79
2022-10-05T10:54:04.705Z,72.80
2022-10-05T10:57:09.915Z,72.73
2022-10-05T10:59:47.201Z,72.76
2022-10-05T11:02:33.883Z,72.67
2022-10-05T11:05:02.576Z,72.60
2022-10-05T11:07:36.488Z,72.75
2022-10-05T11:10:24.803Z,73.07
2022-10-05T11:13:34.356Z,72.80
2022-10-05T11:16:33.106Z,72.97
2022-10-05T11:19:13.607Z,73.26
2022-10-05T11:21:59.965Z,73.13
2022-10-05T11:24:40.326Z,72.92
2022-10-05T11:27:38.571Z,73.14
2022-10-05T11:30:39.527Z,73.06
2022-10-05T11:33:26.081Z,72.91
2022-10-05T11:36:24.291Z,73.00
2022-10-05T11:39:07.320Z,73.08
2022-10-05T11:41:42.180Z,72.99
2022-10-05T11:44:46.806Z,73.00
2022-10-05T11:47:18.026Z,73.48
2022-10-05T11:49:52.426Z,73.47
2022-10-05T11:52:49.081Z,73.52
2022-10-05T11:55:34.561Z,73.19
2022-10-05T11:58:24.320Z,73.11
2022-10-05T12:01:06.561Z,73.29
2022-10-05T12:04:06.505Z,73.25
2022-10-05T12:06:48.554Z,73.17
2022-10-05T12:10:11.699Z,73.44
2022-10-05T12:13:05.284Z,73.31
2022-10-05T12:15:42.746Z,73.09
2022-10-05T12:18:18.509Z,73.18
2022-10-05T12:20:52.966Z,73.33
2022-10-05T12:23:38.210Z,73.27
2022-10-05T12:26:13.601Z,73.78
2022-10-05T12:28:54.880Z,73.39
2022-10-05T12:31:32.372Z,73.64
2022-10-05T12:34:22.366Z,73.87
2022-10-05T12:37:05.045Z,73.64
2022-10-05T12:39:57.442Z,73.32
2022-10-05T12:42:31.201Z,73.61
2022-10-05T12:45:10.191Z,73.46
2022-10-05T12:47:49.228Z,73.35
2022-10-05T12:50:19.836Z,73.73
2022-10-05T12:53:08.485Z,73.35
2022-10-05T12:55:36.764Z,73.13
2022-10-05T12:58:30.103Z,73.08
2022-10-05T13:01:24.885Z,73.55
2022-10-05T13:04:01.930Z,73.76
2022-10-05T13:06:39.493Z,73.29
2022-10-05T13:09:13.445Z,73.21
2022-10-05T13:11:52.805Z,73.69
2022-10-05T13:14:44.376Z,73.80
2022-10-05T13:17:40.166Z,73.75
2022-10-05T13:20:36.961Z,73.49
2022-10-05T13:23:24.146Z,73.51
2022-10-05T13:26:02.713Z,73.33
2022-10-05T13:29:04.487Z,73.78
2022-10-05T13:31:43.740Z,73.84
2022-10-05T13:34:14.886Z,73.45
2022-10-05T13:36:43.045Z,73.75
2022-10-05T13:39:29.765Z,73.63
2022-10-05T13:42:16.785Z,73.73
2022-10-05T13:44:47.660Z,73.65
2022-10-05T13:47:30.885Z,73.73
2022-10-05T13:50:08.482Z,73.81
2022-10-05T13:53:11.370Z,73.90
2022-10-05T13:55:50.034Z,73.58
2022-10-05T13:58:37.570Z,73.64
2022-10-05T14:01:14.346Z,73.71
2022-10-05T14:04:02.880Z,73.78
2022-10-05T14:06:34.051Z,73.57
2022-10-05T14:09:02.551Z,74.01
2022-10-05T14:11:36.485Z,73.77
2022-10-05T14:14:26.410Z,74.16
2022-10-05T14:16:58.047Z,73.80
2022-10-05T14:19:27.812Z,74.11
2022-10-05T14:22:12.425Z,74.36
2022-10-05T14:25:03.821Z,74.61
2022-10-05T14:27:49.101Z,74.05
2022-10-05T14:30:17.443Z,74.20
2022-10-05T14:32:57.724Z,74.53
2022-10-05T14:35:44.764Z,74.69
2022-10-05T14:38:21.613Z,74.88
2022-10-05T14:41:07.151Z,74.65
2022-10-05T14:43:36.795Z,74.56
2022-10-05T14:46:28.478Z,74.78
2022-10-05T14:49:26.599Z,74.53
2022-10-05T14:51:56.906Z,74.69
2022-10-05T14:54:36.740Z,74.88
2022-10-05T14:57:11.162Z,74.50
2022-10-05T15:00:18.890Z,74.49
2022-10-05T15:02:58.885Z,74.75
2022-10-05T15:05:34.402Z,74.41
2022-10-05T15:09:09.146Z,74.69
2022-10-05T15:11:52.124Z,74.85
2022-10-05T15:14:33.286Z,74.85
2022-10-05T15:17:17.560Z,74.75
2022-10-05T15:19:54.890Z,74.90
2022-10-05T15:22:32.810Z,74.85
2022-10-05T15:25:18.250Z,74.78
2022-10-05T15:28:07.356Z,74.81
2022-10-05T15:30:48.212Z,74.80
2022-10-05T15:33:37.600Z,74.67
2022-10-05T15:36:39.090Z,74.71
2022-10-05T15:39:33.570Z,74.61
2022-10-05T15:42:39.230Z,74.44
2022-10-05T15:45:07.365Z,74.47
2022-10-05T15:47:54.391Z,74.84
2022-10-05T15:50:46.534Z,74.27
2022-10-05T15:54:19.355Z,74.33
2022-10-05T15:56:58.874Z,74.13
2022-10-05T15:59:53.439Z,74.06
2022-10-05T16:02:34.290Z,73.91
2022-10-05T16:05:18.567Z,73.88
2022-10-05T16:08:13.283Z,73.77
2022-10-05T16:10:47.830Z,73.92
2022-10-05T16:13:46.700Z,73.81
2022-10-05T16:16:43.092Z,73.77
2022-10-05T16:19:25.902Z,73.63
2022-10-05T16:22:48.210Z,73.49
2022-10-05T16:25:29.124Z,73.54
2022-10-05T16:28:21.639Z,73.45
2022-10-05T16:31:13.356Z,73.61
2022-10-05T16:34:00.287Z,73.63
2022-10-05T16:36:46.824Z,73.52
2022-10-05T16:39:26.183Z,73.79
2022-10-05T16:42:23.400Z,73.63
2022-10-05T16:45:24.278Z,73.45
2022-10-05T16:48:21.014Z,73.19
2022-10-05T16:51:08.680Z,72.56
2022-10-05T16:53:48.644Z,72.71
2022-10-05T16:56:22.084Z,72.48
2022-10-05T16:59:08.314Z,72.39
2022-10-05T17:01:43.242Z,72.17
2022-10-05T17:04:29.602Z,72.07
2022-10-05T17:07:18.086Z,72.13
2022-10-05T17:09:51.990Z,72.18
2022-10-05T17:12:55.680Z,71.82
2022-10-05T17:16:01.571Z,71.78
2022-10-05T17:19:08.230Z,71.66
2022-10-05T17:22:05.945Z,71.45
2022-10-05T17:24:53.271Z,71.25
2022-10-05T17:27:54.100Z,71.07
2022-10-05T17:30:29.452Z,71.21
2022-10-05T17:33:05.421Z,71.24
2022-10-05T17:36:09.924Z,70.84
2022-10-05T17:38:51.630Z,70.86
2022-10-05T17:41:25.459Z,70.60
2022-10-05T17:44:16.969Z,70.73
2022-10-05T17:46:48.963Z,70.22
2022-10-05T17:50:15.462Z,69.51
2022-10-05T17:53:03.975Z,69.47
2022-10-05T17:55:35.200Z,69.48
2022-10-05T17:58:36.030Z,69.57
2022-10-05T18:01:25.945Z,69.92
2022-10-05T18:03:56.270Z,69.67
2022-10-05T18:06:29.195Z,69.96
2022-10-05T18:09:18.410Z,70.06
2022-10-05T18:12:07.864Z,69.99
2022-10-05T18:15:08.204Z,69.64
2022-10-05T18:17:47.150Z,69.36
2022-10-05T18:20:29.771Z,69.35
2022-10-05T18:23:10.591Z,69.47
2022-10-05T18:25:44.320Z,69.22
2022-10-05T18:28:15.242Z,68.70
2022-10-05T18:31:10.843Z,68.99
2022-10-05T18:33:50.910Z,68.99
2022-10-05T18:36:46.085Z,68.78
2022-10-05T18:39:22.862Z,68.38
2022-10-05T18:42:03.210Z,68.19
2022-10-05T18:44:50.884Z,67.94
2022-10-05T18:48:07.672Z,67.92
2022-10-05T18:50:49.760Z,67.95
2022-10-05T18:53:45.926Z,67.71
2022-10-05T18:56:31.355Z,67.29
2022-10-05T18:59:19.438Z,67.41
2022-10-05T19:02:21.376Z,67.15
2022-10-05T19:04:52.460Z,67.00
2022-10-05T19:08:02.027Z,66.67
2022-10-05T19:10:42.245Z,66.74
2022-10-05T19:13:19.370Z,66.44
2022-10-05T19:16:13.209Z,65.94
2022-10-05T19:18:53.100Z,65.99
2022-10-05T19:21:40.496Z,65.35
2022-10-05T19:24:23.690Z,65.12
2022-10-05T19:27:35.956Z,65.19
2022-10-05T19:30:24.014Z,64.59
2022-10-05T19:33:01.396Z,64.23
2022-10-05T19:35:29.604Z,63.99
2022-10-05T19:38:15.402Z,63.86
2022-10-05T19:41:13.775Z,63.28
2022-10-05T19:43:56.651Z,62.91
2022-10-05T19:47:00.865Z,62.86
2022-10-05T19:49:53.852Z,62.73
2022-10-05T19:52:29.280Z,62.23
2022-10-05T19:55:14.895Z,61.80
2022-10-05T19:57:50.564Z,60.79
2022-10-05T20:00:32.119Z,61.35
2022-10-05T20:03:27.505Z,60.37
2022-10-05T20:06:03.469Z,60.48
2022-10-05T20:08:48.809Z,60.07
2022-10-05T20:11:22.688Z,59.77
2022-10-05T20:13:53.666Z,59.17
2022-10-05T20:16:47.363Z,59.13
2022-10-05T20:19:51.980Z,58.28
2022-10-05T20:22:47.199Z,58.00
2022-10-05T20:25:20.651Z,58.29
2022-10-05T20:27:51.684Z,57.84
2022-10-05T20:30:25.706Z,57.02
2022-10-05T20:33:00.485Z,57.21
2022-10-05T20:35:33.415Z,56.53
2022-10-05T20:38:01.921Z,56.39
2022-10-05T20:40:31.846Z,56.40
2022-10-05T20:43:00.166Z,56.56
2022-10-05T20:45:28.472Z,55.24
2022-10-05T20:47:56.827Z,55.11
2022-10-05T20:50:25.125Z,54.87
2022-10-05T20:52:53.715Z,54.47
2022-10-05T20:55:21.916Z,54.15
2022-10-05T20:57:50.111Z,52.76
2022-10-05T21:00:18.560Z,52.57
2022-10-05T21:02:47.851Z,52.83
2022-10-05T21:05:19.053Z,51.41
2022-10-05T21:07:47.820Z,51.78
2022-10-05T21:10:16.165Z,51.75
2022-10-05T21:12:44.686Z,50.59
2022-10-05T21:15:13.306Z,50.33
2022-10-05T21:17:41.600Z,50.36
2022-10-05T21:20:12.158Z,50.17
2022-10-05T21:22:40.439Z,49.22
2022-10-05T21:25:09.930Z,49.07
2022-10-05T21:27:38.176Z,47.89
2022-10-05T21:30:07.211Z,47.81
2022-10-05T21:32:36.870Z,45.46
2022-10-05T21:35:07.143Z,46.13
2022-10-05T21:37:35.465Z,46.06
2022-10-05T21:40:06.240Z,45.02
2022-10-05T21:42:34.599Z,45.02
2022-10-05T21:45:02.986Z,45.28
2022-10-05T21:47:31.715Z,44.57
2022-10-05T21:50:01.424Z,44.29
2022-10-05T21:52:29.715Z,40.77
2022-10-05T21:55:00.294Z,42.88
2022-10-05T21:57:28.645Z,43.03
2022-10-05T21:59:57.422Z,42.94
2022-10-05T22:02:25.763Z,41.60
2022-10-05T22:04:54.891Z,40.60
2022-10-05T22:07:23.206Z,41.78
2022-10-05T22:09:52.646Z,40.95
2022-10-05T22:12:21.401Z,40.33
2022-10-05T22:14:50.567Z,40.72
2022-10-05T22:17:30.500Z,40.67
2022-10-05T22:20:00.489Z,40.68
2022-10-05T22:22:29.924Z,40.51
2022-10-05T22:24:58.144Z,39.92
2022-10-05T22:27:29.279Z,39.71
2022-10-05T22:29:59.209Z,39.91
2022-10-05T22:32:27.950Z,39.70
2022-10-05T22:34:56.170Z,39.08
2022-10-05T22:37:25.132Z,39.72
2022-10-05T22:39:56.126Z,38.89
2022-10-05T22:42:24.480Z,38.73
2022-10-05T22:44:55.526Z,38.25
2022-10-05T22:47:23.850Z,37.85
2022-10-05T22:49:52.495Z,39.08
2022-10-05T22:52:20.811Z,39.30
2022-10-05T22:54:49.123Z,39.69
2022-10-05T22:57:17.569Z,39.62
2022-10-05T22:59:45.927Z,40.02
2022-10-05T23:02:15.002Z,40.15
2022-10-05T23:04:43.271Z,40.54
2022-10-05T23:07:11.555Z,40.73
2022-10-05T23:09:40.011Z,41.07
2022-10-05T23:12:08.321Z,40.46
2022-10-05T23:14:36.961Z,40.82
2022-10-05T23:17:05.625Z,41.09
2022-10-05T23:19:34.025Z,40.87
2022-10-05T23:22:03.371Z,41.61
2022-10-05T23:24:31.666Z,41.40
2022-10-05T23:27:00.011Z,41.30
2022-10-05T23:29:29.771Z,41.61
2022-10-05T23:31:58.090Z,41.73
2022-10-05T23:34:28.170Z,41.89
2022-10-05T23:36:56.496Z,41.76
2022-10-05T23:39:28.005Z,41.99
2022-10-05T23:41:56.315Z,41.95
2022-10-05T23:44:24.790Z,42.12
2022-10-05T23:46:53.134Z,42.09
2022-10-05T23:49:24.475Z,42.11
2022-10-05T23:51:52.806Z,42.20
2022-10-05T23:54:21.125Z,42.26
2022-10-05T23:56:49.438Z,42.21
2022-10-05T23:59:17.695Z,42.32
